Time;durP1;ratioP1;P1;durP2;ratioP2;P2;SDS_P1;SDS_P2;PMS_P1;PMS_P2;Temp;Humidity;BMP_temperature;BMP_pressure;BME280_temperature;BME280_humidity;BME280_pressure;Samples;Min_cycle;Max_cycle;Signal;HPM_P1;HPM_P2
2021/10/21 00:02:18;;;;;;;18.70;12.98;;;;;;;11.23;100.00;99975.09;5015293;28;20498;-76
2021/10/21 00:04:49;;;;;;;20.48;12.95;;;;;;;11.22;100.00;99965.38;5015296;28;20466;-76
2021/10/21 00:07:17;;;;;;;19.92;13.35;;;;;;;11.22;100.00;99970.72;4998087;28;20064;-77
2021/10/21 00:09:45;;;;;;;18.48;12.45;;;;;;;11.13;100.00;99980.22;5015380;28;20068;-77
2021/10/21 00:12:15;;;;;;;21.15;14.00;;;;;;;11.03;100.00;99971.09;5015142;28;20052;-78
2021/10/21 00:14:45;;;;;;;19.02;13.02;;;;;;;11.06;100.00;99962.88;5015699;28;20038;-76
2021/10/21 00:17:13;;;;;;;19.23;12.88;;;;;;;11.03;100.00;99960.44;5015153;28;20419;-77
2021/10/21 00:19:41;;;;;;;21.13;12.98;;;;;;;11.03;100.00;99948.91;5015436;28;20042;-78
2021/10/21 00:22:10;;;;;;;19.33;12.73;;;;;;;11.11;100.00;99955.44;5014919;28;20399;-78
2021/10/21 00:24:38;;;;;;;17.17;11.98;;;;;;;11.19;100.00;99933.53;5015576;28;20403;-74
2021/10/21 00:27:06;;;;;;;16.83;12.10;;;;;;;11.26;100.00;99928.66;4997214;28;20050;-75
2021/10/21 00:29:38;;;;;;;17.23;12.15;;;;;;;11.28;100.00;99927.56;5014940;28;20129;-75
2021/10/21 00:32:06;;;;;;;17.70;11.90;;;;;;;11.40;100.00;99918.75;5014737;28;20052;-77
2021/10/21 00:34:35;;;;;;;17.42;11.73;;;;;;;11.34;100.00;99912.97;5014999;28;20048;-75
2021/10/21 00:37:03;;;;;;;16.63;11.43;;;;;;;11.38;100.00;99907.28;4997046;28;20100;-77
2021/10/21 00:39:31;;;;;;;18.98;11.70;;;;;;;11.39;100.00;99892.16;5014704;28;20041;-75
2021/10/21 00:41:59;;;;;;;17.73;12.07;;;;;;;11.34;100.00;99895.13;5014624;28;20048;-82
2021/10/21 00:44:28;;;;;;;17.73;10.90;;;;;;;11.40;100.00;99900.06;5014728;28;20120;-76
2021/10/21 00:46:58;;;;;;;16.05;11.05;;;;;;;11.46;100.00;99883.59;5014930;28;20486;-76
2021/10/21 00:49:27;;;;;;;21.40;10.80;;;;;;;11.41;100.00;99885.75;5014927;28;20045;-75
2021/10/21 00:51:55;;;;;;;17.70;11.23;;;;;;;11.35;100.00;99871.94;5014728;28;20450;-76
2021/10/21 00:54:24;;;;;;;17.33;10.63;;;;;;;11.38;100.00;99885.94;5014274;28;20446;-75
2021/10/21 00:56:53;;;;;;;15.85;10.00;;;;;;;11.34;100.00;99878.25;5014379;28;20392;-76
2021/10/21 00:59:22;;;;;;;17.95;11.13;;;;;;;11.45;100.00;99881.88;5014204;28;20100;-75
2021/10/21 01:01:50;;;;;;;16.80;10.20;;;;;;;11.49;100.00;99868.34;5014399;28;20052;-76
2021/10/21 01:04:20;;;;;;;14.57;10.13;;;;;;;11.47;100.00;99869.28;5013866;28;20041;-76
2021/10/21 01:06:51;;;;;;;14.95;9.27;;;;;;;11.60;100.00;99869.28;5014170;28;20479;-74
2021/10/21 01:09:19;;;;;;;15.00;9.20;;;;;;;11.56;100.00;99865.09;5014106;28;20049;-75
2021/10/21 01:11:48;;;;;;;15.82;8.98;;;;;;;11.59;100.00;99861.38;5014473;28;20483;-76
2021/10/21 01:14:16;;;;;;;14.60;9.02;;;;;;;11.51;100.00;99853.06;5013983;28;20057;-76
2021/10/21 01:16:45;;;;;;;13.15;9.05;;;;;;;11.49;100.00;99852.31;5014348;28;20399;-75
2021/10/21 01:19:17;;;;;;;14.32;9.30;;;;;;;11.52;100.00;99868.09;5014116;28;20517;-75
2021/10/21 01:21:49;;;;;;;15.30;9.10;;;;;;;11.49;100.00;99857.66;5014178;28;20064;-76
2021/10/21 01:24:18;;;;;;;12.85;8.68;;;;;;;11.51;100.00;99853.91;5013663;28;20499;-75
2021/10/21 01:26:47;;;;;;;12.88;8.77;;;;;;;11.47;100.00;99853.25;4996807;28;20050;-75
2021/10/21 01:29:17;;;;;;;16.58;9.38;;;;;;;11.34;100.00;99841.72;5013714;28;20054;-72
2021/10/21 01:31:47;;;;;;;16.05;9.10;;;;;;;11.33;100.00;99840.03;5014104;28;20551;-76
2021/10/21 01:34:16;;;;;;;13.50;8.85;;;;;;;11.30;100.00;99826.88;5013809;28;20533;-75
2021/10/21 01:36:51;;;;;;;14.60;9.02;;;;;;;11.22;100.00;99818.56;5013667;28;20046;-75
2021/10/21 01:39:20;;;;;;;12.18;8.80;;;;;;;11.13;100.00;99814.72;5013532;28;20056;-75
2021/10/21 01:41:48;;;;;;;14.57;8.68;;;;;;;11.11;100.00;99818.44;5013944;28;20060;-76
2021/10/21 01:44:17;;;;;;;13.93;8.77;;;;;;;11.12;100.00;99820.16;5013117;28;20061;-75
2021/10/21 01:46:45;;;;;;;12.82;8.70;;;;;;;11.10;100.00;99806.06;5014645;28;20092;-76
2021/10/21 01:49:14;;;;;;;12.88;8.45;;;;;;;11.18;100.00;99804.56;5015614;28;20042;-74
2021/10/21 01:51:42;;;;;;;13.90;8.27;;;;;;;11.14;100.00;99808.41;5013950;28;20089;-75
2021/10/21 01:54:11;;;;;;;12.23;7.93;;;;;;;11.09;100.00;99801.66;5013261;28;20054;-76
2021/10/21 01:56:40;;;;;;;12.45;8.27;;;;;;;11.16;100.00;99806.47;4996647;28;20049;-76
2021/10/21 01:59:08;;;;;;;13.85;8.00;;;;;;;11.21;100.00;99792.81;5013783;28;20050;-74
2021/10/21 02:01:37;;;;;;;12.02;7.43;;;;;;;11.10;100.00;99804.25;5014280;28;20050;-74
2021/10/21 02:04:05;;;;;;;13.30;8.10;;;;;;;11.14;100.00;99791.53;5013245;28;20124;-78
2021/10/21 02:06:34;;;;;;;11.35;7.40;;;;;;;11.33;100.00;99791.09;5013459;28;20053;-74
2021/10/21 02:09:02;;;;;;;13.23;7.95;;;;;;;11.25;100.00;99794.31;5013567;28;20136;-73
2021/10/21 02:11:32;;;;;;;10.77;7.43;;;;;;;11.28;100.00;99788.75;5013088;28;20041;-73
2021/10/21 02:14:00;;;;;;;12.45;7.97;;;;;;;11.28;100.00;99799.41;5013227;28;20045;-74
2021/10/21 02:16:30;;;;;;;10.98;7.40;;;;;;;11.24;100.00;99792.59;5013194;28;20124;-73
2021/10/21 02:18:58;;;;;;;11.07;6.95;;;;;;;11.17;100.00;99796.66;5013451;28;20042;-74
2021/10/21 02:21:26;;;;;;;13.05;7.65;;;;;;;11.07;100.00;99806.25;5012709;28;20511;-74
2021/10/21 02:23:55;;;;;;;14.93;7.57;;;;;;;11.09;100.00;99799.00;5013324;28;20042;-75
2021/10/21 02:26:23;;;;;;;11.63;7.47;;;;;;;11.01;100.00;99793.38;5012733;28;20046;-75
2021/10/21 02:28:53;;;;;;;11.70;7.53;;;;;;;10.95;100.00;99799.97;5013308;28;20074;-74
2021/10/21 02:31:21;;;;;;;11.15;7.38;;;;;;;10.95;100.00;99793.78;5012928;28;20045;-75
2021/10/21 02:33:49;;;;;;;11.95;7.43;;;;;;;10.97;100.00;99781.16;5012933;28;20053;-74
2021/10/21 02:36:17;;;;;;;12.40;7.22;;;;;;;10.86;100.00;99790.78;5015490;28;20122;-74
2021/10/21 02:38:46;;;;;;;13.07;7.55;;;;;;;10.87;100.00;99784.47;5017188;28;20473;-73
2021/10/21 02:41:15;;;;;;;12.57;7.75;;;;;;;10.69;100.00;99777.72;5016482;28;20488;-75
2021/10/21 02:43:43;;;;;;;13.18;7.78;;;;;;;10.68;100.00;99773.34;5017043;28;20085;-74
2021/10/21 02:46:13;;;;;;;11.90;7.95;;;;;;;10.60;100.00;99765.88;5017020;28;20058;-73
2021/10/21 02:48:41;;;;;;;12.02;7.28;;;;;;;10.59;100.00;99764.16;4999780;28;20057;-73
2021/10/21 02:51:10;;;;;;;12.13;7.88;;;;;;;10.56;100.00;99768.84;4999174;28;20041;-78
2021/10/21 02:53:38;;;;;;;12.70;7.10;;;;;;;10.48;100.00;99772.03;5017120;28;20045;-78
2021/10/21 02:56:06;;;;;;;11.27;7.25;;;;;;;10.46;100.00;99757.09;5017092;28;20046;-75
2021/10/21 02:58:34;;;;;;;12.35;8.13;;;;;;;10.37;100.00;99773.72;5016969;28;20108;-76
2021/10/21 03:01:02;;;;;;;12.20;7.35;;;;;;;10.27;100.00;99768.16;5016856;28;20108;-76
2021/10/21 03:03:32;;;;;;;10.70;7.28;;;;;;;10.18;100.00;99764.25;5016236;28;20465;-76
2021/10/21 03:06:01;;;;;;;10.82;7.55;;;;;;;10.35;100.00;99767.66;5017015;28;20046;-76
2021/10/21 03:08:29;;;;;;;11.20;7.38;;;;;;;10.31;100.00;99764.31;5016264;28;20129;-75
2021/10/21 03:10:57;;;;;;;11.85;6.93;;;;;;;10.35;100.00;99755.16;5016512;28;20487;-76
2021/10/21 03:13:27;;;;;;;10.95;7.60;;;;;;;10.45;100.00;99756.25;5016100;28;20048;-74
2021/10/21 03:15:55;;;;;;;10.50;6.45;;;;;;;10.52;100.00;99743.38;5016490;28;20049;-76
2021/10/21 03:18:23;;;;;;;10.30;6.63;;;;;;;10.61;100.00;99745.38;5016162;28;20100;-75
2021/10/21 03:20:54;;;;;;;12.32;6.32;;;;;;;10.65;100.00;99740.72;5016185;28;20038;-76
2021/10/21 03:23:25;;;;;;;11.05;6.65;;;;;;;10.70;100.00;99738.56;5015913;28;20100;-78
2021/10/21 03:25:53;;;;;;;9.98;6.03;;;;;;;10.79;100.00;99733.44;5016224;28;20426;-78
2021/10/21 03:28:22;;;;;;;9.57;6.40;;;;;;;10.77;100.00;99740.72;5016052;28;20380;-75
2021/10/21 03:30:50;;;;;;;12.10;6.85;;;;;;;10.77;100.00;99738.03;5016245;28;20046;-77
2021/10/21 03:33:18;;;;;;;9.75;6.38;;;;;;;10.77;100.00;99732.72;5015669;28;20042;-77
2021/10/21 03:35:46;;;;;;;9.88;6.38;;;;;;;10.81;100.00;99739.56;5015889;28;20042;-75
2021/10/21 03:38:16;;;;;;;10.95;6.80;;;;;;;10.76;100.00;99733.69;5015811;28;20125;-76
2021/10/21 03:40:44;;;;;;;11.30;6.35;;;;;;;10.74;100.00;99730.25;5015953;28;20041;-77
2021/10/21 03:43:12;;;;;;;20.25;6.85;;;;;;;10.77;100.00;99724.72;5015533;28;20046;-76
2021/10/21 03:45:43;;;;;;;10.38;6.60;;;;;;;10.81;100.00;99725.38;5016082;28;20052;-75
2021/10/21 03:48:11;;;;;;;10.13;6.57;;;;;;;10.77;100.00;99723.84;5015434;28;20496;-79
2021/10/21 03:50:40;;;;;;;9.20;6.30;;;;;;;10.74;100.00;99713.41;5016024;28;20184;-76
2021/10/21 03:53:09;;;;;;;9.35;6.53;;;;;;;10.74;100.00;99719.59;5015858;28;20100;-76
2021/10/21 03:55:39;;;;;;;10.75;6.50;;;;;;;10.78;100.00;99715.75;5016156;28;20068;-75
2021/10/21 03:58:07;;;;;;;8.63;6.05;;;;;;;10.73;100.00;99712.56;5015738;28;20056;-75
2021/10/21 04:00:36;;;;;;;10.75;7.10;;;;;;;10.76;100.00;99706.16;5015600;28;20092;-74
2021/10/21 04:03:05;;;;;;;9.73;6.35;;;;;;;10.70;100.00;99707.41;5015539;28;20048;-75
2021/10/21 04:05:33;;;;;;;10.63;6.72;;;;;;;10.69;100.00;99707.53;5015185;28;20495;-74
2021/10/21 04:08:01;;;;;;;9.68;6.80;;;;;;;10.61;100.00;99708.03;5015612;28;20046;-73
2021/10/21 04:10:32;;;;;;;11.35;6.65;;;;;;;10.64;100.00;99705.19;5015144;28;20076;-74
2021/10/21 04:13:02;;;;;;;9.75;6.18;;;;;;;10.77;100.00;99705.19;5015431;28;20042;-74
2021/10/21 04:15:30;;;;;;;11.02;6.55;;;;;;;10.78;100.00;99694.41;5014863;28;20476;-75
2021/10/21 04:17:59;;;;;;;10.55;6.57;;;;;;;10.71;100.00;99695.81;5015337;28;20092;-75
2021/10/21 04:20:27;;;;;;;10.98;6.88;;;;;;;10.57;100.00;99695.91;4997713;28;20096;-75
2021/10/21 04:22:55;;;;;;;16.23;6.75;;;;;;;10.57;100.00;99695.91;5015071;28;20049;-75
2021/10/21 04:25:23;;;;;;;10.50;6.93;;;;;;;10.55;100.00;99697.81;5014780;28;20096;-76
2021/10/21 04:27:52;;;;;;;12.13;7.00;;;;;;;10.46;100.00;99699.31;5015202;28;20046;-74
2021/10/21 04:30:23;;;;;;;13.05;7.25;;;;;;;10.46;100.00;99685.13;5014905;28;20046;-75
2021/10/21 04:32:52;;;;;;;11.90;6.82;;;;;;;10.40;100.00;99690.84;5015192;28;20054;-74
2021/10/21 04:35:20;;;;;;;11.57;7.60;;;;;;;10.48;100.00;99685.84;5014430;28;20050;-76
2021/10/21 04:37:48;;;;;;;10.80;6.75;;;;;;;10.48;100.00;99681.38;5015247;28;20046;-74
2021/10/21 04:40:17;;;;;;;11.00;6.95;;;;;;;10.43;100.00;99685.34;4997409;28;20161;-77
2021/10/21 04:42:45;;;;;;;13.45;7.13;;;;;;;10.43;100.00;99680.84;5014843;28;20108;-75
2021/10/21 04:45:13;;;;;;;12.27;6.93;;;;;;;10.34;100.00;99672.63;5014503;28;20483;-75
2021/10/21 04:47:43;;;;;;;14.80;7.07;;;;;;;10.32;100.00;99664.72;5014170;28;20501;-71
2021/10/21 04:50:12;;;;;;;11.25;6.75;;;;;;;10.27;100.00;99673.03;5014628;28;20053;-71
2021/10/21 04:52:41;;;;;;;12.20;7.03;;;;;;;10.13;100.00;99654.41;5014340;28;20054;-72
2021/10/21 04:55:09;;;;;;;10.82;6.82;;;;;;;10.25;100.00;99669.63;5014762;28;20053;-72
2021/10/21 04:57:37;;;;;;;12.60;7.68;;;;;;;10.19;100.00;99670.00;5013618;28;20148;-71
2021/10/21 05:00:07;;;;;;;10.93;7.90;;;;;;;10.17;100.00;99663.06;5014345;28;20053;-72
2021/10/21 05:02:35;;;;;;;10.95;7.15;;;;;;;10.15;100.00;99663.19;5014453;28;20132;-72
2021/10/21 05:05:06;;;;;;;12.23;8.05;;;;;;;10.15;100.00;99655.19;5014111;28;20049;-72
2021/10/21 05:07:34;;;;;;;13.48;7.75;;;;;;;10.17;100.00;99645.28;5014209;28;20042;-72
2021/10/21 05:10:03;;;;;;;11.65;7.38;;;;;;;10.20;100.00;99647.72;5013676;28;20050;-72
2021/10/21 05:12:31;;;;;;;11.20;7.20;;;;;;;10.22;100.00;99640.50;5013863;28;20050;-72
2021/10/21 05:14:59;;;;;;;13.93;7.90;;;;;;;10.21;100.00;99641.44;5014389;28;20048;-72
2021/10/21 05:17:28;;;;;;;13.00;7.50;;;;;;;10.24;100.00;99643.94;5007680;28;20073;-72
2021/10/21 05:19:56;;;;;;;17.13;7.78;;;;;;;10.27;100.00;99633.06;4994675;28;20042;-73
2021/10/21 05:22:26;;;;;;;16.98;7.80;;;;;;;10.54;100.00;99632.13;5013227;28;20134;-76
2021/10/21 05:24:54;;;;;;;12.80;8.13;;;;;;;10.48;100.00;99635.19;5013010;28;20065;-75
2021/10/21 05:27:22;;;;;;;11.80;7.40;;;;;;;10.43;100.00;99630.19;4994980;28;20391;-72
2021/10/21 05:29:51;;;;;;;12.45;8.07;;;;;;;10.50;100.00;99638.59;4992718;28;20046;-68
2021/10/21 05:32:19;;;;;;;14.52;8.43;;;;;;;10.62;100.00;99629.78;4993494;28;20077;-69
2021/10/21 05:34:48;;;;;;;16.98;8.63;;;;;;;10.61;100.00;99638.69;4993803;28;20050;-68
2021/10/21 05:37:16;;;;;;;11.90;7.47;;;;;;;10.71;100.00;99644.25;4993545;28;20097;-67
2021/10/21 05:39:45;;;;;;;11.93;7.43;;;;;;;10.69;100.00;99636.34;4993279;28;20108;-71
2021/10/21 05:42:14;;;;;;;14.40;7.05;;;;;;;10.85;100.00;99631.66;4993238;28;20053;-74
2021/10/21 05:44:42;;;;;;;14.15;6.57;;;;;;;10.96;100.00;99632.69;4992579;28;20064;-67
2021/10/21 05:47:10;;;;;;;12.43;7.20;;;;;;;11.03;100.00;99632.16;5011949;28;20037;-69
2021/10/21 05:49:39;;;;;;;13.10;7.38;;;;;;;11.05;100.00;99642.72;5031668;28;20458;-70
2021/10/21 05:52:07;;;;;;;14.35;7.60;;;;;;;11.15;100.00;99638.44;5032505;28;20046;-71
2021/10/21 05:54:35;;;;;;;13.95;7.82;;;;;;;11.10;100.00;99635.25;5032038;28;20049;-70
2021/10/21 05:57:05;;;;;;;16.50;8.10;;;;;;;11.23;100.00;99637.88;5031895;28;20044;-71
2021/10/21 05:59:33;;;;;;;15.48;7.65;;;;;;;11.15;100.00;99633.94;5031682;28;20042;-70
2021/10/21 06:02:01;;;;;;;10.85;7.35;;;;;;;11.16;100.00;99619.63;5014997;28;20506;-71
2021/10/21 06:04:30;;;;;;;13.50;7.18;;;;;;;11.34;100.00;99622.78;5032035;28;20445;-68
2021/10/21 06:06:58;;;;;;;14.10;6.70;;;;;;;11.36;100.00;99628.84;5032447;28;20051;-72
2021/10/21 06:09:26;;;;;;;10.23;6.90;;;;;;;11.38;100.00;99628.72;5031790;28;20049;-69
2021/10/21 06:11:55;;;;;;;13.07;6.78;;;;;;;11.46;100.00;99618.34;5032254;28;20483;-72
2021/10/21 06:14:25;;;;;;;10.07;6.80;;;;;;;11.62;100.00;99620.75;5032253;28;20052;-71
2021/10/21 06:16:53;;;;;;;10.50;6.57;;;;;;;11.54;100.00;99639.16;5031745;28;20042;-69
2021/10/21 06:19:21;;;;;;;11.77;6.55;;;;;;;11.56;100.00;99631.88;5031919;28;20037;-71
2021/10/21 06:21:57;;;;;;;11.27;7.13;;;;;;;11.72;100.00;99619.09;5033046;28;20144;-71
2021/10/21 06:24:28;;;;;;;13.68;6.28;;;;;;;11.80;100.00;99608.72;5020003;28;20049;-71
2021/10/21 06:26:57;;;;;;;9.82;6.30;;;;;;;11.87;100.00;99614.44;4975756;28;20053;-67
2021/10/21 06:29:27;;;;;;;11.77;6.85;;;;;;;11.83;100.00;99613.81;4993757;28;20555;-68
2021/10/21 06:31:55;;;;;;;9.85;6.22;;;;;;;11.93;100.00;99603.28;4994336;28;20101;-71
2021/10/21 06:34:24;;;;;;;14.73;6.78;;;;;;;12.21;100.00;99607.38;4994419;28;20130;-76
2021/10/21 06:36:52;;;;;;;10.65;6.32;;;;;;;12.32;99.97;99602.03;4992555;28;20058;-74
2021/10/21 06:39:21;;;;;;;9.95;6.50;;;;;;;12.53;98.76;99595.00;4992629;28;20439;-73
2021/10/21 06:41:49;;;;;;;9.82;6.18;;;;;;;12.68;98.13;99601.00;4992658;28;20391;-72
2021/10/21 06:44:20;;;;;;;10.85;6.50;;;;;;;12.85;96.99;99586.28;4993543;28;20069;-71
2021/10/21 06:46:49;;;;;;;8.98;6.03;;;;;;;12.93;96.82;99585.63;4998535;28;20042;-70
2021/10/21 06:49:18;;;;;;;10.57;5.93;;;;;;;13.10;96.07;99588.66;5012645;28;20045;-73
2021/10/21 06:51:48;;;;;;;10.30;5.68;;;;;;;13.27;94.70;99587.31;5012112;28;20042;-73
2021/10/21 06:54:19;;;;;;;13.65;6.90;;;;;;;13.41;93.26;99583.50;5012568;28;20050;-72
2021/10/21 06:56:48;;;;;;;9.07;5.10;;;;;;;13.43;93.55;99584.25;5011874;28;20042;-70
2021/10/21 06:59:16;;;;;;;10.23;5.93;;;;;;;13.42;93.38;99588.75;5011749;28;20046;-73
2021/10/21 07:01:45;;;;;;;12.07;6.05;;;;;;;13.67;91.93;99584.03;5011598;28;20041;-71
2021/10/21 07:04:15;;;;;;;9.98;5.85;;;;;;;13.60;92.65;99588.19;5011875;28;20042;-72
2021/10/21 07:06:43;;;;;;;12.07;6.07;;;;;;;13.73;92.07;99579.03;5011930;28;20056;-71
2021/10/21 07:09:14;;;;;;;11.23;5.78;;;;;;;13.68;92.05;99581.22;5011927;28;20050;-75
2021/10/21 07:11:42;;;;;;;8.82;5.63;;;;;;;13.74;91.38;99575.34;5011918;28;20057;-73
2021/10/21 07:14:10;;;;;;;11.15;5.40;;;;;;;13.68;91.48;99586.56;5011896;28;20054;-68
2021/10/21 07:16:39;;;;;;;9.32;5.55;;;;;;;13.62;92.16;99575.53;5011579;28;20046;-72
2021/10/21 07:19:07;;;;;;;14.77;7.80;;;;;;;13.58;92.62;99582.97;5012039;28;20121;-74
2021/10/21 07:21:37;;;;;;;12.27;6.15;;;;;;;13.63;92.26;99582.59;5012313;28;20042;-73
2021/10/21 07:24:06;;;;;;;13.85;6.03;;;;;;;13.56;92.42;99576.88;5015008;28;20038;-73
2021/10/21 07:26:35;;;;;;;10.88;5.90;;;;;;;13.75;92.09;99574.38;5014897;28;20069;-76
2021/10/21 07:29:03;;;;;;;10.93;5.80;;;;;;;13.83;91.47;99572.88;5014742;28;20080;-70
2021/10/21 07:31:31;;;;;;;12.05;5.68;;;;;;;13.93;90.61;99576.50;5015246;28;20050;-72
2021/10/21 07:34:00;;;;;;;10.23;5.57;;;;;;;13.99;90.60;99573.25;5015179;28;20553;-73
2021/10/21 07:36:28;;;;;;;9.85;5.93;;;;;;;14.09;89.80;99571.53;5015216;28;20048;-72
2021/10/21 07:38:58;;;;;;;9.70;5.90;;;;;;;14.08;89.86;99567.13;5015102;28;20049;-72
2021/10/21 07:41:27;;;;;;;8.80;5.38;;;;;;;14.20;89.94;99567.94;5015281;28;20092;-73
2021/10/21 07:43:56;;;;;;;10.88;5.60;;;;;;;14.32;89.40;99569.53;5014830;28;20889;-72
2021/10/21 07:46:24;;;;;;;9.88;5.80;;;;;;;14.43;87.94;99560.56;5015090;28;20041;-73
2021/10/21 07:48:52;;;;;;;11.95;5.90;;;;;;;14.55;87.62;99564.88;5014984;28;20100;-75
2021/10/21 07:51:20;;;;;;;10.52;5.30;;;;;;;14.64;87.02;99558.72;5014869;28;20053;-70
2021/10/21 07:53:49;;;;;;;12.75;5.70;;;;;;;14.76;86.58;99562.13;5014663;28;20046;-71
2021/10/21 07:56:18;;;;;;;8.45;4.97;;;;;;;14.87;85.91;99551.31;5015255;28;20046;-69
2021/10/21 07:58:46;;;;;;;10.70;5.10;;;;;;;14.85;85.90;99559.50;5014617;28;20046;-72
2021/10/21 08:01:14;;;;;;;10.60;5.63;;;;;;;14.83;85.88;99549.88;5014344;28;20080;-69
2021/10/21 08:03:43;;;;;;;13.45;5.10;;;;;;;14.86;85.80;99541.53;5014321;28;20402;-73
2021/10/21 08:06:11;;;;;;;11.00;5.50;;;;;;;14.95;85.96;99540.72;4997306;28;20056;-73
2021/10/21 08:08:42;;;;;;;10.05;5.32;;;;;;;14.97;85.50;99541.47;5014748;28;20081;-81
2021/10/21 08:11:10;;;;;;;12.15;4.95;;;;;;;15.01;85.49;99533.97;5014792;28;20081;-71
2021/10/21 08:13:40;;;;;;;18.05;5.40;;;;;;;15.23;83.97;99528.34;5014401;28;20046;-72
2021/10/21 08:16:08;;;;;;;13.68;5.60;;;;;;;15.45;82.45;99533.47;5014110;28;20510;-71
2021/10/21 08:18:37;;;;;;;18.02;4.75;;;;;;;15.61;81.46;99546.38;5014772;28;20403;-72
2021/10/21 08:21:05;;;;;;;14.85;4.05;;;;;;;15.73;80.89;99547.09;5014062;28;20046;-70
2021/10/21 08:23:34;;;;;;;18.48;5.30;;;;;;;15.76;80.65;99552.19;5014368;28;20080;-71
2021/10/21 08:26:04;;;;;;;13.13;4.72;;;;;;;15.80;80.28;99555.41;5013784;28;20093;-73
2021/10/21 08:28:32;;;;;;;15.40;4.93;;;;;;;15.96;79.66;99566.47;5014111;28;20124;-74
2021/10/21 08:31:02;;;;;;;17.02;4.97;;;;;;;16.06;78.46;99563.75;5013792;28;20052;-72
2021/10/21 08:33:30;;;;;;;23.88;5.15;;;;;;;16.12;78.97;99558.66;5012984;28;20042;-73
2021/10/21 08:35:59;;;;;;;12.00;4.47;;;;;;;16.15;78.50;99557.50;5013691;28;20384;-69
2021/10/21 08:38:27;;;;;;;12.52;4.82;;;;;;;16.17;78.70;99563.59;5014201;28;20065;-71
2021/10/21 08:40:55;;;;;;;13.48;4.28;;;;;;;16.24;78.40;99548.56;5013219;28;20129;-71
2021/10/21 08:43:23;;;;;;;8.32;4.63;;;;;;;16.21;78.41;99556.91;5013612;28;20129;-73
2021/10/21 08:45:52;;;;;;;12.93;4.10;;;;;;;16.29;78.25;99543.59;5013548;28;20048;-73
2021/10/21 08:48:22;;;;;;;22.95;4.20;;;;;;;16.32;77.54;99537.94;5013676;28;20117;-73
2021/10/21 08:50:52;;;;;;;11.30;4.65;;;;;;;16.34;77.84;99533.25;5012570;28;20455;-73
2021/10/21 08:53:20;;;;;;;15.38;4.38;;;;;;;16.30;77.65;99529.97;5012629;28;20406;-72
2021/10/21 08:55:50;;;;;;;12.88;4.50;;;;;;;16.35;77.48;99545.72;4994932;28;20050;-73
2021/10/21 08:58:20;;;;;;;13.63;4.80;;;;;;;16.32;77.10;99532.56;5012909;28;20042;-73
2021/10/21 09:00:56;;;;;;;9.30;4.72;;;;;;;16.12;78.55;99555.13;5012948;28;20367;-72
2021/10/21 09:03:44;;;;;;;12.15;4.20;;;;;;;16.16;78.18;99532.31;5013664;28;20436;-70
2021/10/21 09:06:25;;;;;;;13.52;4.43;;;;;;;16.21;77.43;99540.78;5013874;28;20046;-68
2021/10/21 09:08:53;;;;;;;18.13;4.35;;;;;;;16.33;75.92;99538.78;5013284;28;20042;-70
2021/10/21 09:11:22;;;;;;;14.57;3.90;;;;;;;16.42;75.45;99538.75;5013418;28;20056;-68
2021/10/21 09:14:08;;;;;;;12.02;3.83;;;;;;;16.42;75.41;99528.00;5012874;28;20049;-70
2021/10/21 09:16:39;;;;;;;9.63;3.40;;;;;;;16.52;74.37;99531.50;5013128;28;20104;-71
2021/10/21 09:19:12;;;;;;;13.38;4.22;;;;;;;16.56;74.44;99527.50;5012837;28;20041;-72
2021/10/21 09:22:01;;;;;;;14.07;3.58;;;;;;;16.69;73.80;99529.03;5013408;28;20422;-72
2021/10/21 09:24:31;;;;;;;8.95;3.83;;;;;;;16.88;72.88;99528.94;5013442;28;20073;-69
2021/10/21 09:27:02;;;;;;;12.82;3.95;;;;;;;16.87;73.43;99520.00;5013155;28;20092;-73
2021/10/21 09:29:31;;;;;;;9.35;3.53;;;;;;;17.05;72.14;99511.13;5012837;28;20049;-72
2021/10/21 09:32:07;;;;;;;10.90;4.10;;;;;;;17.10;71.88;99517.75;5012896;28;20072;-73
2021/10/21 09:34:52;;;;;;;16.63;4.15;;;;;;;17.22;71.42;99522.94;5013276;28;20046;-72
2021/10/21 09:37:22;;;;;;;15.88;3.70;;;;;;;17.22;71.47;99526.47;5013380;28;20050;-72
2021/10/21 09:39:52;;;;;;;32.00;4.25;;;;;;;17.29;70.55;99499.75;5013025;28;20100;-69
2021/10/21 09:42:28;;;;;;;21.90;4.35;;;;;;;17.27;70.93;99513.38;5012672;28;20495;-72
2021/10/21 09:45:12;;;;;;;13.05;3.90;;;;;;;17.29;70.72;99511.38;5012565;28;20046;-71
2021/10/21 09:47:43;;;;;;;19.15;3.97;;;;;;;17.39;70.53;99533.72;5008798;28;20061;-71
2021/10/21 09:50:23;;;;;;;16.30;4.18;;;;;;;17.49;70.27;99514.78;5032128;28;20041;-69
2021/10/21 09:53:08;;;;;;;14.57;3.58;;;;;;;17.59;69.67;99534.44;5032560;28;20044;-72
2021/10/21 09:55:38;;;;;;;26.45;4.40;;;;;;;17.60;69.23;99519.09;5032433;28;20037;-70
2021/10/21 09:58:10;;;;;;;33.78;5.00;;;;;;;17.65;69.01;99514.91;5031939;28;20180;-71
2021/10/21 10:00:41;;;;;;;22.48;3.97;;;;;;;17.72;68.77;99502.53;5032244;28;20111;-70
2021/10/21 10:03:11;;;;;;;25.75;4.30;;;;;;;17.75;68.24;99522.94;5032111;28;20045;-72
2021/10/21 10:05:41;;;;;;;23.80;4.10;;;;;;;17.91;67.90;99500.66;5032172;28;20056;-69
2021/10/21 10:08:10;;;;;;;21.45;4.32;;;;;;;17.94;68.00;99527.31;5032160;28;20045;-74
2021/10/21 10:10:39;;;;;;;16.77;3.67;;;;;;;18.00;67.05;99511.34;5032192;28;20049;-71
2021/10/21 10:13:12;;;;;;;10.10;3.40;;;;;;;17.90;67.14;99498.97;5030975;28;20801;-72
2021/10/21 10:15:43;;;;;;;13.52;3.88;;;;;;;17.79;67.69;99512.72;5032439;28;20370;-69
2021/10/21 10:18:17;;;;;;;12.25;3.47;;;;;;;17.81;67.59;99489.13;5029345;28;20470;-66
2021/10/21 10:21:13;;;;;;;13.38;3.65;;;;;;;17.83;67.49;99509.53;4992122;28;20051;-71
2021/10/21 10:23:51;;;;;;;12.80;3.42;;;;;;;17.80;67.41;99512.56;4992444;28;20395;-70
2021/10/21 10:26:41;;;;;;;14.57;3.60;;;;;;;17.70;68.22;99507.25;4991747;28;20051;-71
2021/10/21 10:29:13;;;;;;;16.05;4.10;;;;;;;17.66;68.17;99518.44;4991429;28;20049;-70
2021/10/21 10:31:43;;;;;;;11.15;3.53;;;;;;;17.62;68.20;99506.28;4992297;28;20050;-69
2021/10/21 10:34:46;;;;;;;21.25;4.63;;;;;;;17.51;68.61;99520.88;4992039;28;20475;-67
2021/10/21 10:37:45;;;;;;;11.52;3.15;;;;;;;17.53;68.61;99518.84;4987682;28;20058;-69
2021/10/21 10:40:14;;;;;;;9.38;3.58;;;;;;;17.59;68.36;99496.69;4992008;28;20042;-72
2021/10/21 10:43:01;;;;;;;15.35;3.90;;;;;;;17.59;68.46;99501.22;4991828;28;20046;-70
2021/10/21 10:45:44;;;;;;;9.23;3.33;;;;;;;17.64;68.37;99507.81;4992307;28;20066;-72
2021/10/21 10:48:14;;;;;;;8.23;3.45;;;;;;;17.63;68.23;99498.03;5027927;28;20044;-69
2021/10/21 10:50:53;;;;;;;9.65;3.55;;;;;;;17.61;68.78;99508.16;5031716;28;20080;-70
2021/10/21 10:53:45;;;;;;;4.68;2.42;;;;;;;17.59;68.10;99493.97;5032016;28;20038;-70
2021/10/21 10:56:41;;;;;;;8.23;3.45;;;;;;;17.70;68.03;99498.31;5032017;28;20049;-69
2021/10/21 10:59:18;;;;;;;8.35;3.03;;;;;;;17.80;68.21;99484.72;5035521;28;20068;-68
2021/10/21 11:01:48;;;;;;;10.38;3.78;;;;;;;17.86;68.16;99494.91;5036210;28;20049;-68
2021/10/21 11:04:53;;;;;;;7.60;3.22;;;;;;;17.90;68.00;99483.63;5036226;28;20491;-67
2021/10/21 11:07:23;;;;;;;8.38;3.55;;;;;;;17.92;68.00;99488.88;5036044;28;20418;-68
2021/10/21 11:09:55;;;;;;;12.23;3.22;;;;;;;17.90;67.80;99474.69;5035790;28;20049;-73
2021/10/21 11:12:25;;;;;;;5.03;2.63;;;;;;;17.93;67.83;99479.75;5035906;28;20140;-69
2021/10/21 11:14:55;;;;;;;10.75;3.10;;;;;;;17.95;67.97;99492.13;5035569;28;20100;-71
2021/10/21 11:17:41;;;;;;;8.82;3.15;;;;;;;18.03;67.13;99475.09;5035802;28;20051;-70
2021/10/21 11:20:42;;;;;;;16.50;3.83;;;;;;;18.06;67.86;99469.41;5035511;28;20038;-71
2021/10/21 11:23:48;;;;;;;11.40;3.38;;;;;;;18.02;67.13;99473.41;5035536;28;20052;-70
2021/10/21 11:26:24;;;;;;;13.75;3.38;;;;;;;17.94;67.93;99485.00;5031605;28;20059;-72
2021/10/21 11:28:53;;;;;;;11.75;3.33;;;;;;;17.98;67.49;99478.28;5035739;28;20053;-72
2021/10/21 11:31:21;;;;;;;12.18;3.35;;;;;;;17.96;68.12;99461.44;5035192;28;20049;-70
2021/10/21 11:33:50;;;;;;;13.70;3.30;;;;;;;17.96;68.22;99468.69;5035254;28;20072;-70
2021/10/21 11:36:18;;;;;;;6.93;3.20;;;;;;;17.92;68.28;99469.97;5035396;28;20045;-70
2021/10/21 11:39:04;;;;;;;9.13;2.80;;;;;;;17.94;68.42;99467.97;5035343;28;20041;-70